createdAt,value
2018-12-24T00:45:02.472Z,101658.92
2018-12-24T00:47:52.176Z,101639.34
2018-12-24T00:50:33.925Z,101650.58
2018-12-24T00:53:23.351Z,101680.47
2018-12-24T00:55:53.857Z,101692.09
2018-12-24T00:58:43.169Z,101696.04
2018-12-24T01:04:34.065Z,101697.27
2018-12-24T01:07:43.115Z,101699.03
2018-12-24T01:10:25.027Z,101727.36
2018-12-24T01:13:14.346Z,101698.23
2018-12-24T01:15:59.926Z,101716.35
2018-12-24T01:18:42.080Z,101744.92
2018-12-24T01:21:51.165Z,101723.77
2018-12-24T01:24:33.317Z,101737.20
2018-12-24T01:27:42.133Z,101746.05
2018-12-24T01:30:24.493Z,101775.58
2018-12-24T01:33:13.881Z,101758.19
2018-12-24T01:35:56.372Z,101766.85
2018-12-24T01:41:50.567Z,101786.35
2018-12-24T01:44:40.729Z,101783.38
2018-12-24T01:47:30.442Z,101794.62
2018-12-24T01:50:13.170Z,101818.37
2018-12-24T01:53:03.080Z,101829.95
2018-12-24T01:55:45.097Z,101816.28
2018-12-24T01:58:34.726Z,101821.75
2018-12-24T02:01:17.039Z,101853.84
2018-12-24T02:04:06.451Z,101827.86
2018-12-24T02:06:47.986Z,101838.98
2018-12-24T02:12:25.241Z,101846.50
2018-12-24T02:15:14.621Z,101870.74
2018-12-24T02:17:56.816Z,101877.55
2018-12-24T02:23:33.931Z,101893.72
2018-12-24T02:29:11.279Z,101883.28
2018-12-24T02:32:00.676Z,101912.88
2018-12-24T02:34:43.238Z,101916.36
2018-12-24T02:37:32.888Z,101925.50
2018-12-24T02:40:15.471Z,101900.19
2018-12-24T02:43:05.589Z,101910.12
2018-12-24T02:45:50.822Z,101941.53
2018-12-24T02:48:40.471Z,101933.93
2018-12-24T02:54:17.717Z,101957.73
2018-12-24T02:59:54.518Z,101960.31
2018-12-24T03:05:32.725Z,102001.69
2018-12-24T03:08:22.137Z,101975.50
2018-12-24T03:11:04.022Z,101980.16
2018-12-24T03:13:46.429Z,102020.17
2018-12-24T03:16:35.814Z,102004.27
2018-12-24T03:19:18.433Z,102031.70
2018-12-24T03:25:08.779Z,102052.44
2018-12-24T03:30:59.585Z,102068.54
2018-12-24T03:36:50.299Z,102055.91
2018-12-24T03:42:41.087Z,102063.61
2018-12-24T03:45:30.468Z,102058.16
2018-12-24T03:48:13.200Z,102069.73
2018-12-24T03:54:03.497Z,102069.61
2018-12-24T03:56:52.864Z,102086.73
2018-12-24T03:59:34.950Z,102106.01
2018-12-24T04:02:24.613Z,102113.10
2018-12-24T04:05:06.523Z,102088.44
2018-12-24T04:07:48.705Z,102089.39
2018-12-24T04:10:38.079Z,102090.69
2018-12-24T04:13:22.681Z,102116.59
2018-12-24T04:19:13.097Z,102123.22
2018-12-24T04:25:03.738Z,102157.56
2018-12-24T04:27:45.726Z,102169.86
2018-12-24T04:30:35.440Z,102154.97
2018-12-24T04:33:17.579Z,102158.41
2018-12-24T04:36:06.960Z,102192.44
2018-12-24T04:38:48.650Z,102210.72
2018-12-24T04:41:38.033Z,102228.46
2018-12-24T04:44:22.972Z,102236.02
2018-12-24T04:47:31.595Z,102245.38
2018-12-24T04:50:13.715Z,102261.66
2018-12-24T04:53:04.014Z,102264.94
2018-12-24T04:55:45.617Z,102252.13
2018-12-24T04:58:16.021Z,102284.06
2018-12-24T05:04:00.823Z,102294.63
2018-12-24T05:06:43.190Z,102304.37
2018-12-24T05:12:34.344Z,102292.36
2018-12-24T05:15:23.883Z,102322.97
2018-12-24T05:17:54.503Z,102330.42
2018-12-24T05:21:03.305Z,102317.36
2018-12-24T05:24:01.959Z,102333.83
2018-12-24T05:26:32.679Z,102363.30
2018-12-24T05:32:10.342Z,102372.15
2018-12-24T05:34:59.653Z,102353.64
2018-12-24T05:37:42.354Z,102363.45
2018-12-24T05:40:50.683Z,102376.14
2018-12-24T05:43:32.324Z,102383.36
2018-12-24T05:48:57.808Z,102423.85
2018-12-24T05:51:47.541Z,102430.08
2018-12-24T05:54:37.424Z,102444.22
2018-12-24T06:00:21.761Z,102465.06
2018-12-24T06:03:03.918Z,102452.27
2018-12-24T06:08:55.368Z,102479.53
2018-12-24T06:11:44.642Z,102488.89
2018-12-24T06:14:27.164Z,102473.03
2018-12-24T06:17:16.539Z,102474.13
2018-12-24T06:19:46.866Z,102514.59
2018-12-24T06:22:36.149Z,102505.04
2018-12-24T06:25:18.660Z,102505.69
2018-12-24T06:28:00.441Z,102539.97
2018-12-24T06:36:14.004Z,102545.89
2018-12-24T06:39:03.923Z,102568.58
2018-12-24T06:41:51.072Z,102544.64
2018-12-24T06:44:39.894Z,102572.58
2018-12-24T06:47:25.807Z,102553.24
2018-12-24T06:56:18.633Z,102604.92
2018-12-24T06:59:08.353Z,102580.64
2018-12-24T07:01:50.862Z,102581.69
2018-12-24T07:04:40.555Z,102606.86
2018-12-24T07:07:22.813Z,102606.37
2018-12-24T07:13:00.030Z,102580.45
2018-12-24T07:18:37.179Z,102581.09
2018-12-24T07:24:19.702Z,102593.24
2018-12-24T07:26:51.091Z,102629.67
2018-12-24T07:29:33.573Z,102639.48
2018-12-24T07:32:23.166Z,102641.45
2018-12-24T07:35:05.440Z,102643.36
2018-12-24T07:40:42.502Z,102637.20
2018-12-24T07:46:19.211Z,102679.66
2018-12-24T07:52:03.883Z,102679.62
2018-12-24T07:54:46.435Z,102688.33
2018-12-24T08:00:42.920Z,102708.36
2018-12-24T08:09:15.396Z,102734.91
2018-12-24T08:12:05.254Z,102713.13
2018-12-24T08:17:57.728Z,102716.45
2018-12-24T08:20:47.512Z,102716.77
2018-12-24T08:23:30.152Z,102725.16
2018-12-24T08:26:00.853Z,102748.37
2018-12-24T08:28:50.515Z,102736.93
2018-12-24T08:34:41.421Z,102747.17
2018-12-24T08:37:31.058Z,102758.29
2018-12-24T08:40:13.553Z,102785.74
2018-12-24T08:42:43.792Z,102784.70
2018-12-24T08:45:33.482Z,102761.30
2018-12-24T08:51:20.497Z,102764.94
2018-12-24T08:54:02.446Z,102800.56
2018-12-24T08:56:51.879Z,102784.64
2018-12-24T09:02:36.904Z,102820.28
2018-12-24T09:05:18.703Z,102801.62
2018-12-24T09:10:55.299Z,102835.69
2018-12-24T09:13:44.679Z,102813.11
2018-12-24T09:16:28.172Z,102817.09
2018-12-24T09:19:31.576Z,102850.05
2018-12-24T09:22:00.847Z,102852.16
2018-12-24T09:25:04.664Z,102834.07
2018-12-24T09:27:34.394Z,102864.13
2018-12-24T09:30:18.510Z,102862.85
2018-12-24T09:33:07.861Z,102869.96
2018-12-24T09:35:50.097Z,102848.02
2018-12-24T09:41:41.407Z,102879.34
2018-12-24T09:44:31.078Z,102855.27
2018-12-24T09:47:17.356Z,102885.86
2018-12-24T09:50:07.192Z,102867.88
2018-12-24T09:52:49.492Z,102896.33
2018-12-24T09:55:41.135Z,102867.02
2018-12-24T09:58:22.712Z,102870.02
2018-12-24T10:04:17.700Z,102889.89
2018-12-24T10:07:31.221Z,102883.04
2018-12-24T10:10:14.841Z,102872.94
2018-12-24T10:16:05.502Z,102904.15
2018-12-24T10:22:01.678Z,102903.34
2018-12-24T10:24:46.287Z,102881.14
2018-12-24T10:30:24.122Z,102910.98
2018-12-24T10:33:14.122Z,102891.92
2018-12-24T10:35:56.805Z,102915.13
2018-12-24T10:41:34.235Z,102921.50
2018-12-24T10:44:04.547Z,102918.72
2018-12-24T10:52:38.401Z,102922.22
2018-12-24T10:55:28.096Z,102901.55
2018-12-24T10:58:10.145Z,102894.86
2018-12-24T11:03:49.150Z,102899.56
2018-12-24T11:06:38.868Z,102907.13
2018-12-24T11:09:21.389Z,102927.09
2018-12-24T11:12:11.184Z,102928.16
2018-12-24T11:14:41.525Z,102927.93
2018-12-24T11:17:45.121Z,102933.10
2018-12-24T11:20:14.496Z,102904.30
2018-12-24T11:22:44.820Z,102933.06
2018-12-24T11:25:34.389Z,102905.63
2018-12-24T11:28:57.258Z,102931.34
2018-12-24T11:31:26.665Z,102925.59
2018-12-24T11:34:16.054Z,102917.92
2018-12-24T11:36:58.771Z,102923.38
2018-12-24T11:42:36.153Z,102910.66
2018-12-24T11:45:33.584Z,102922.89
2018-12-24T11:48:10.033Z,102913.06
2018-12-24T11:50:59.721Z,102933.85
2018-12-24T11:53:41.722Z,102926.06
2018-12-24T11:59:19.255Z,102898.89
2018-12-24T12:02:10.896Z,102897.05
2018-12-24T12:04:53.079Z,102913.86
2018-12-24T12:07:44.772Z,102893.72
2018-12-24T12:10:27.246Z,102915.87
2018-12-24T12:16:05.092Z,102951.00
2018-12-24T12:18:55.485Z,102951.30
2018-12-24T12:21:25.743Z,102954.92
2018-12-24T12:24:34.022Z,102954.38
2018-12-24T12:27:04.338Z,102956.66
2018-12-24T12:32:40.447Z,102914.16
2018-12-24T12:35:29.828Z,102943.69
2018-12-24T12:38:11.933Z,102949.48
2018-12-24T12:41:01.578Z,102960.47
2018-12-24T12:43:43.183Z,102956.95
2018-12-24T12:46:32.585Z,102935.89
2018-12-24T12:49:16.774Z,102939.73
2018-12-24T12:52:06.741Z,102958.23
2018-12-24T12:54:49.333Z,102952.06
2018-12-24T12:57:58.176Z,102945.00
2018-12-24T13:00:40.843Z,102952.98
2018-12-24T13:06:20.988Z,102958.81
2018-12-24T13:09:10.378Z,102932.98
2018-12-24T13:11:54.217Z,102959.16
2018-12-24T13:14:36.352Z,102934.68
2018-12-24T13:20:14.939Z,102952.94
2018-12-24T13:26:05.032Z,102954.00
2018-12-24T13:31:54.980Z,102934.59
2018-12-24T13:34:44.289Z,102941.66
2018-12-24T13:37:25.961Z,102939.91
2018-12-24T13:43:16.387Z,102941.58
2018-12-24T13:46:08.291Z,102976.31
2018-12-24T13:51:44.724Z,102967.45
2018-12-24T13:54:34.130Z,102956.84
2018-12-24T13:57:15.830Z,102940.08
2018-12-24T14:00:05.562Z,102943.66
2018-12-24T14:02:47.428Z,102962.89
2018-12-24T14:05:36.778Z,102943.47
2018-12-24T14:08:18.572Z,102939.06
2018-12-24T14:11:07.964Z,102934.80
2018-12-24T14:13:49.823Z,102958.88
2018-12-24T14:16:39.379Z,102939.70
2018-12-24T14:19:28.746Z,102938.97
2018-12-24T14:22:10.946Z,102960.11
2018-12-24T14:25:00.598Z,102945.27
2018-12-24T14:27:47.169Z,102947.11
2018-12-24T14:30:28.800Z,102947.19
2018-12-24T14:33:11.374Z,102945.03
2018-12-24T14:36:00.838Z,102960.60
2018-12-24T14:38:42.953Z,102964.26
2018-12-24T14:41:33.259Z,102979.38
2018-12-24T14:44:15.447Z,102977.70
2018-12-24T14:47:04.867Z,102944.34
2018-12-24T14:49:46.807Z,102969.36
2018-12-24T14:52:36.459Z,102960.42
2018-12-24T14:55:22.065Z,102967.95
2018-12-24T14:58:04.938Z,102939.41
2018-12-24T15:00:54.291Z,102946.87
2018-12-24T15:03:36.002Z,102952.34
2018-12-24T15:09:31.820Z,102962.67
2018-12-24T15:12:21.171Z,102954.08
2018-12-24T15:18:02.223Z,102975.14
2018-12-24T15:20:51.920Z,103003.32
2018-12-24T15:23:34.785Z,102973.60
2018-12-24T15:26:24.262Z,102986.67
2018-12-24T15:29:05.932Z,103010.73
2018-12-24T15:34:43.182Z,103022.84
2018-12-24T15:40:33.834Z,103038.91
2018-12-24T15:43:15.981Z,103015.94
2018-12-24T15:48:53.083Z,103020.50
2018-12-24T15:51:42.748Z,103045.60
2018-12-24T15:54:24.862Z,103011.16
2018-12-24T15:57:14.520Z,103046.59
2018-12-24T15:59:56.595Z,103021.40
2018-12-24T16:02:26.956Z,103043.79
2018-12-24T16:08:11.205Z,103041.70
2018-12-24T16:10:53.853Z,103020.06
2018-12-24T16:13:43.707Z,103035.38
2018-12-24T16:16:26.176Z,103056.63
2018-12-24T16:19:15.601Z,103029.39
2018-12-24T16:22:00.387Z,103055.64
2018-12-24T16:24:43.003Z,103026.48
2018-12-24T16:27:32.343Z,103026.80
2018-12-24T16:30:15.063Z,103019.06
2018-12-24T16:33:25.307Z,103017.64
2018-12-24T16:36:07.989Z,103021.03
2018-12-24T16:38:50.010Z,103022.28
2018-12-24T16:44:28.011Z,103039.66
2018-12-24T16:47:17.746Z,103047.64
2018-12-24T16:50:01.902Z,103067.94
2018-12-24T16:52:51.278Z,103061.36
2018-12-24T16:55:34.041Z,103043.20
2018-12-24T16:58:23.690Z,103062.73
2018-12-24T17:01:06.041Z,103036.50
2018-12-24T17:06:43.367Z,103055.10
2018-12-24T17:09:32.769Z,103036.52
2018-12-24T17:12:02.997Z,103061.39
2018-12-24T17:14:52.714Z,103060.50
2018-12-24T17:17:42.063Z,103040.79
2018-12-24T17:23:07.160Z,103055.00
2018-12-24T17:26:16.245Z,103056.80
2018-12-24T17:32:13.319Z,103030.05
2018-12-24T17:34:55.512Z,103032.55
2018-12-24T17:37:45.188Z,103048.23
2018-12-24T17:40:27.594Z,103050.23
2018-12-24T17:46:04.775Z,103010.52
2018-12-24T17:48:54.171Z,103038.92
2018-12-24T17:51:36.532Z,103037.30
2018-12-24T17:54:25.903Z,103041.74
2018-12-24T17:57:07.433Z,103022.39
2018-12-24T18:02:44.053Z,103059.25
2018-12-24T18:05:33.444Z,103055.38
2018-12-24T18:08:17.555Z,103055.86
2018-12-24T18:11:07.007Z,103050.04
2018-12-24T18:13:50.250Z,103037.15
2018-12-24T18:19:28.120Z,103075.24
2018-12-24T18:25:17.965Z,103082.36
2018-12-24T18:28:00.539Z,103088.63
2018-12-24T18:33:50.657Z,103082.40
2018-12-24T18:36:32.331Z,103108.41
2018-12-24T18:39:21.988Z,103083.84
2018-12-24T18:42:04.664Z,103112.20
2018-12-24T18:44:54.028Z,103086.05
2018-12-24T18:47:36.353Z,103094.84
2018-12-24T18:50:25.739Z,103126.98
2018-12-24T18:53:07.945Z,103142.09
2018-12-24T18:55:49.590Z,103120.99
2018-12-24T18:58:38.895Z,103151.58
2018-12-24T19:01:21.104Z,103143.15
2018-12-24T19:04:10.471Z,103125.22
2018-12-24T19:06:40.732Z,103153.92
2018-12-24T19:09:32.433Z,103125.39
2018-12-24T19:12:15.042Z,103131.22
2018-12-24T19:15:04.477Z,103128.08
2018-12-24T19:17:48.479Z,103134.97
2018-12-24T19:20:38.158Z,103159.12
2018-12-24T19:23:20.689Z,103160.80
2018-12-24T19:29:11.369Z,103141.02
2018-12-24T19:32:00.742Z,103148.92
2018-12-24T19:34:43.077Z,103173.68
2018-12-24T19:37:25.400Z,103176.98
2018-12-24T19:40:15.101Z,103149.19
2018-12-24T19:42:59.342Z,103159.36
2018-12-24T19:45:48.705Z,103172.86
2018-12-24T19:48:30.997Z,103170.34
2018-12-24T19:51:01.558Z,103171.73
2018-12-24T19:56:45.921Z,103157.67
2018-12-24T19:59:30.319Z,103158.56
2018-12-24T20:05:08.442Z,103194.67
2018-12-24T20:07:57.847Z,103202.11
2018-12-24T20:10:47.190Z,103177.70
2018-12-24T20:13:36.568Z,103197.12
2018-12-24T20:16:18.890Z,103175.76
2018-12-24T20:19:08.841Z,103176.55
2018-12-24T20:21:51.136Z,103195.75
2018-12-24T20:24:40.494Z,103203.67
2018-12-24T20:27:22.512Z,103185.22
2018-12-24T20:32:58.903Z,103195.31
2018-12-24T20:35:48.261Z,103164.14
2018-12-24T20:38:37.045Z,103173.53
2018-12-24T20:41:22.345Z,103176.09
2018-12-24T20:44:05.137Z,103193.73
2018-12-24T20:49:44.005Z,103175.28
2018-12-24T20:52:33.239Z,103187.72
2018-12-24T20:55:15.370Z,103183.31
2018-12-24T21:01:08.183Z,103207.88
2018-12-24T21:06:59.135Z,103218.14
2018-12-24T21:09:48.409Z,103187.19
2018-12-24T21:12:30.487Z,103184.84
2018-12-24T21:15:19.713Z,103190.80
2018-12-24T21:18:02.701Z,103210.34
2018-12-24T21:20:52.065Z,103190.26
2018-12-24T21:23:33.711Z,103186.93
2018-12-24T21:47:45.400Z,103202.97
2018-12-24T21:50:27.114Z,103174.33
2018-12-24T21:52:57.510Z,103203.27
2018-12-24T21:55:46.866Z,103177.91
2018-12-24T21:58:29.250Z,103208.75
2018-12-24T22:07:02.384Z,103172.47
2018-12-24T22:09:51.659Z,103179.98
2018-12-24T22:12:33.994Z,103206.19
2018-12-24T22:18:32.023Z,103185.80
2018-12-24T22:21:15.251Z,103182.48
2018-12-24T22:23:57.458Z,103184.42
2018-12-24T22:26:47.654Z,103194.21
2018-12-24T22:29:29.798Z,103195.30
2018-12-24T22:32:19.129Z,103201.25
2018-12-24T22:35:02.066Z,103183.73
2018-12-24T22:37:51.489Z,103185.80
2018-12-24T22:43:28.599Z,103171.42
2018-12-24T22:46:17.992Z,103195.19
2018-12-24T22:48:59.570Z,103178.52
2018-12-24T22:54:36.726Z,103172.61
2018-12-24T22:57:26.145Z,103180.48
2018-12-24T23:00:09.125Z,103174.98
2018-12-24T23:02:58.503Z,103192.31
2018-12-24T23:05:40.855Z,103167.71
2018-12-24T23:08:30.281Z,103164.97
2018-12-24T23:11:12.323Z,103159.44
2018-12-24T23:16:59.233Z,103167.38
2018-12-24T23:19:41.821Z,103174.14
2018-12-24T23:22:31.260Z,103175.34
2018-12-24T23:25:13.526Z,103169.52
2018-12-24T23:28:03.169Z,103173.99
2018-12-24T23:30:45.607Z,103174.07
2018-12-24T23:33:34.912Z,103198.42
2018-12-24T23:36:17.840Z,103175.73
2018-12-24T23:39:04.689Z,103174.94
2018-12-24T23:41:46.410Z,103184.55
2018-12-24T23:44:36.065Z,103183.50
2018-12-24T23:47:24.006Z,103181.23
2018-12-24T23:50:05.701Z,103169.63
2018-12-24T23:52:55.526Z,103169.78
2018-12-24T23:55:37.761Z,103164.34
